Armada Tuah 303 — V7ZX5 — position and weather

sailwx.info

Track history (hours):
 
Tides and Currents Weather Stations Pressure Air Temp Water Temp Dewpoint Dewpoint Depression Visibility Wind Speed Wind Dir Waves Ship Positions

Armada Tuah 303

Last reported at 2018-Feb-19 16:32 UTC. Time now 2018-Feb-24 02:42 UTC.
Position S 20°30' E 116°43'.

Length 75 m; draft 6 m.

Type: Other ship. MMSI: 538004936.

Date/timePositionNaut miles runAvg speedWind from/ knotsBaromVisibWave heightAir tempDewpointWater temp
2018-Feb-19 16:32S 20°30' E 116°43'111.1
2018-Feb-19 16:29S 20°30' E 116°43'8 0.2
2018-Feb-18 04:08S 20°38' E 116°42'3 7.0
2018-Feb-18 03:42S 20°35' E 116°42'210.8
2018-Feb-18 03:28S 20°33' E 116°42'611.4
2018-Feb-18 02:58S 20°27' E 116°43'4 8.1
2018-Feb-18 02:28S 20°23' E 116°41'2 0.1
2018-Feb-17 00:42S 20°23' E 116°39'0 0.2
2018-Feb-17 00:18S 20°23' E 116°39'0 0.2
2018-Feb-17 00:00S 20°23' E 116°39'0 0.1
2018-Feb-16 22:12S 20°23' E 116°39'0 0.0
2018-Feb-16 09:18S 20°23' E 116°39'0 0.0
2018-Feb-16 07:00S 20°23' E 116°39'0 0.1
2018-Feb-16 06:30S 20°23' E 116°39'0 0.2
2018-Feb-16 05:30S 20°23' E 116°39'0 0.0
2018-Feb-15 19:48S 20°23' E 116°39'0 0.0
2018-Feb-15 19:24S 20°23' E 116°39'1 0.2
2018-Feb-15 16:12S 20°23' E 116°40'1 4.3
2018-Feb-15 15:59S 20°23' E 116°41'4 7.9
2018-Feb-15 15:30S 20°26' E 116°43'714.3
2018-Feb-15 15:00S 20°33' E 116°42'5 1.3
2018-Feb-15 10:57S 20°38' E 116°44'3 6.2
2018-Feb-15 10:28S 20°35' E 116°42'613.1
2018-Feb-15 10:00S 20°29' E 116°44'612.0
2018-Feb-15 09:30S 20°23' E 116°42'4 8.1
2018-Feb-15 08:58S 20°21' E 116°37'1 0.1
2018-Feb-14 23:11S 20°22' E 116°37'0 0.0
2018-Feb-14 20:59S 20°21' E 116°37'0 0.1
2018-Feb-14 19:11S 20°21' E 116°37'0 0.0
2018-Feb-14 16:47S 20°21' E 116°37'0 0.0
2018-Feb-14 16:29S 20°21' E 116°37'0 0.0
2018-Feb-14 13:47S 20°22' E 116°37'0 0.0
2018-Feb-14 13:29S 20°22' E 116°37'0 0.0
2018-Feb-14 07:17S 20°22' E 116°37'0 0.1
2018-Feb-14 06:47S 20°21' E 116°37'0 0.0
2018-Feb-14 06:29S 20°21' E 116°37'0 0.0
2018-Feb-14 05:59S 20°21' E 116°37'0 0.0
2018-Feb-13 15:37S 20°21' E 116°37'2 5.1
2018-Feb-13 15:13S 20°20' E 116°39'3 9.3
2018-Feb-13 14:55S 20°18' E 116°41'511.4
2018-Feb-13 14:28S 20°15' E 116°45'3 6.9
2018-Feb-13 14:00S 20°12' E 116°46'510.7
2018-Feb-13 13:30S 20°07' E 116°48'612.1
2018-Feb-13 12:59S 20°00' E 116°49'612.0
2018-Feb-13 12:30S 19°55' E 116°51'911.9
2018-Feb-13 11:43S 19°46' E 116°52'312.6
2018-Feb-13 11:27S 19°42' E 116°52'612.8
2018-Feb-13 10:59S 19°36' E 116°53'612.8
2018-Feb-13 10:30S 19°30' E 116°52'712.6
2018-Feb-13 09:57S 19°23' E 116°52'612.9
2018-Feb-13 09:30S 19°17' E 116°52'2112.3
2018-Feb-13 07:46S 18°56' E 116°50'411.9
2018-Feb-13 07:25S 18°52' E 116°49'  
Track history (hours):
 
Tides and Currents Weather Stations Pressure Air Temp Water Temp Dewpoint Dewpoint Depression Visibility Wind Speed Wind Dir Waves Ship Positions

Armada Tuah 303

Last reported at 2018-Feb-19 16:32 UTC. Time now 2018-Feb-24 02:42 UTC.
Position S 20°30' E 116°43'.

Length 75 m; draft 6 m.

Type: Other ship. MMSI: 538004936.

Date/timePositionNaut miles runAvg speedWind from/ knotsBaromVisibWave heightAir tempDewpointWater temp
2018-Feb-19 16:32S 20°30' E 116°43'111.1
2018-Feb-19 16:29S 20°30' E 116°43'8 0.2
2018-Feb-18 04:08S 20°38' E 116°42'3 7.0
2018-Feb-18 03:42S 20°35' E 116°42'210.8
2018-Feb-18 03:28S 20°33' E 116°42'611.4
2018-Feb-18 02:58S 20°27' E 116°43'4 8.1
2018-Feb-18 02:28S 20°23' E 116°41'2 0.1
2018-Feb-17 00:42S 20°23' E 116°39'0 0.2
2018-Feb-17 00:18S 20°23' E 116°39'0 0.2
2018-Feb-17 00:00S 20°23' E 116°39'0 0.1
2018-Feb-16 22:12S 20°23' E 116°39'0 0.0
2018-Feb-16 09:18S 20°23' E 116°39'0 0.0
2018-Feb-16 07:00S 20°23' E 116°39'0 0.1
2018-Feb-16 06:30S 20°23' E 116°39'0 0.2
2018-Feb-16 05:30S 20°23' E 116°39'0 0.0
2018-Feb-15 19:48S 20°23' E 116°39'0 0.0
2018-Feb-15 19:24S 20°23' E 116°39'1 0.2
2018-Feb-15 16:12S 20°23' E 116°40'1 4.3
2018-Feb-15 15:59S 20°23' E 116°41'4 7.9
2018-Feb-15 15:30S 20°26' E 116°43'714.3
2018-Feb-15 15:00S 20°33' E 116°42'5 1.3
2018-Feb-15 10:57S 20°38' E 116°44'3 6.2
2018-Feb-15 10:28S 20°35' E 116°42'613.1
2018-Feb-15 10:00S 20°29' E 116°44'612.0
2018-Feb-15 09:30S 20°23' E 116°42'4 8.1
2018-Feb-15 08:58S 20°21' E 116°37'1 0.1
2018-Feb-14 23:11S 20°22' E 116°37'0 0.0
2018-Feb-14 20:59S 20°21' E 116°37'0 0.1
2018-Feb-14 19:11S 20°21' E 116°37'0 0.0
2018-Feb-14 16:47S 20°21' E 116°37'0 0.0
2018-Feb-14 16:29S 20°21' E 116°37'0 0.0
2018-Feb-14 13:47S 20°22' E 116°37'0 0.0
2018-Feb-14 13:29S 20°22' E 116°37'0 0.0
2018-Feb-14 07:17S 20°22' E 116°37'0 0.1
2018-Feb-14 06:47S 20°21' E 116°37'0 0.0
2018-Feb-14 06:29S 20°21' E 116°37'0 0.0
2018-Feb-14 05:59S 20°21' E 116°37'0 0.0
2018-Feb-13 15:37S 20°21' E 116°37'2 5.1
2018-Feb-13 15:13S 20°20' E 116°39'3 9.3
2018-Feb-13 14:55S 20°18' E 116°41'511.4
2018-Feb-13 14:28S 20°15' E 116°45'3 6.9
2018-Feb-13 14:00S 20°12' E 116°46'510.7
2018-Feb-13 13:30S 20°07' E 116°48'612.1
2018-Feb-13 12:59S 20°00' E 116°49'612.0
2018-Feb-13 12:30S 19°55' E 116°51'911.9
2018-Feb-13 11:43S 19°46' E 116°52'312.6
2018-Feb-13 11:27S 19°42' E 116°52'612.8
2018-Feb-13 10:59S 19°36' E 116°53'612.8
2018-Feb-13 10:30S 19°30' E 116°52'712.6
2018-Feb-13 09:57S 19°23' E 116°52'612.9
2018-Feb-13 09:30S 19°17' E 116°52'2112.3
2018-Feb-13 07:46S 18°56' E 116°50'411.9
2018-Feb-13 07:25S 18°52' E 116°49'  

Dump ship's entire track history